sensor_id;sensor_type;location;lat;lon;timestamp;pressure;altitude;pressure_sealevel;temperature;humidity
54918;BME280;40818;50.562;7.454;2022-09-09T05:36:03;97137.56;;;13.31;100.00
54918;BME280;40818;50.562;7.454;2022-09-09T05:41:09;97138.81;;;13.78;100.00
54918;BME280;40818;50.562;7.454;2022-09-09T05:46:17;97149.13;;;13.89;100.00
54918;BME280;40818;50.562;7.454;2022-09-09T05:56:33;97138.44;;;14.02;100.00
54918;BME280;40818;50.562;7.454;2022-09-09T06:01:37;97149.13;;;14.58;100.00
54918;BME280;40818;50.562;7.454;2022-09-09T06:06:45;97139.72;;;14.94;100.00
54918;BME280;40818;50.562;7.454;2022-09-09T06:11:54;97139.84;;;15.58;100.00
54918;BME280;40818;50.562;7.454;2022-09-09T06:16:58;97132.97;;;16.21;100.00
54918;BME280;40818;50.562;7.454;2022-09-09T06:22:04;97135.91;;;16.00;100.00
54918;BME280;40818;50.562;7.454;2022-09-09T06:27:13;97137.22;;;16.58;100.00
54918;BME280;40818;50.562;7.454;2022-09-09T06:32:17;97131.06;;;17.28;100.00
54918;BME280;40818;50.562;7.454;2022-09-09T06:37:20;97132.91;;;17.79;100.00
54918;BME280;40818;50.562;7.454;2022-09-09T06:42:27;97124.44;;;18.01;100.00
54918;BME280;40818;50.562;7.454;2022-09-09T06:47:54;97122.16;;;18.48;100.00
54918;BME280;40818;50.562;7.454;2022-09-09T06:52:58;97136.47;;;19.26;100.00
54918;BME280;40818;50.562;7.454;2022-09-09T06:58:08;97124.78;;;19.68;93.34
54918;BME280;40818;50.562;7.454;2022-09-09T07:03:12;97133.38;;;19.93;86.61
54918;BME280;40818;50.562;7.454;2022-09-09T07:08:15;97135.47;;;20.44;91.86
54918;BME280;40818;50.562;7.454;2022-09-09T07:13:23;97139.25;;;20.50;85.68
54918;BME280;40818;50.562;7.454;2022-09-09T07:18:29;97145.16;;;20.29;83.56
54918;BME280;40818;50.562;7.454;2022-09-09T07:23:34;97142.03;;;20.49;81.38
54918;BME280;40818;50.562;7.454;2022-09-09T07:28:42;97134.41;;;20.16;81.07
54918;BME280;40818;50.562;7.454;2022-09-09T07:33:46;97140.53;;;20.31;79.62
54918;BME280;40818;50.562;7.454;2022-09-09T07:38:53;97146.13;;;20.74;76.02
54918;BME280;40818;50.562;7.454;2022-09-09T07:44:04;97149.78;;;20.04;82.12
54918;BME280;40818;50.562;7.454;2022-09-09T07:49:08;97150.72;;;20.34;75.75
54918;BME280;40818;50.562;7.454;2022-09-09T07:54:14;97151.50;;;20.20;74.91
54918;BME280;40818;50.562;7.454;2022-09-09T07:59:24;97156.44;;;19.91;81.04
54918;BME280;40818;50.562;7.454;2022-09-09T08:04:31;97150.00;;;19.94;78.11
54918;BME280;40818;50.562;7.454;2022-09-09T08:09:35;97160.63;;;20.09;78.09
54918;BME280;40818;50.562;7.454;2022-09-09T08:14:48;97172.63;;;20.11;78.90
54918;BME280;40818;50.562;7.454;2022-09-09T08:19:52;97162.91;;;19.89;78.99
54918;BME280;40818;50.562;7.454;2022-09-09T08:24:59;97175.22;;;19.49;77.88
54918;BME280;40818;50.562;7.454;2022-09-09T08:30:06;97168.44;;;19.06;78.86
54918;BME280;40818;50.562;7.454;2022-09-09T08:35:09;97185.53;;;19.02;81.48
54918;BME280;40818;50.562;7.454;2022-09-09T08:40:20;97178.28;;;19.13;83.82
54918;BME280;40818;50.562;7.454;2022-09-09T08:45:33;97184.84;;;19.25;77.25
54918;BME280;40818;50.562;7.454;2022-09-09T08:50:41;97190.09;;;19.25;77.47
54918;BME280;40818;50.562;7.454;2022-09-09T08:55:52;97192.78;;;19.00;74.99
54918;BME280;40818;50.562;7.454;2022-09-09T09:01:49;97193.59;;;19.01;75.96
54918;BME280;40818;50.562;7.454;2022-09-09T09:07:21;97191.47;;;19.04;75.01
54918;BME280;40818;50.562;7.454;2022-09-09T09:12:35;97193.44;;;18.94;73.58
54918;BME280;40818;50.562;7.454;2022-09-09T09:17:44;97202.00;;;18.88;71.27
54918;BME280;40818;50.562;7.454;2022-09-09T09:22:51;97202.50;;;18.91;72.86
54918;BME280;40818;50.562;7.454;2022-09-09T09:27:58;97204.94;;;19.01;72.55
54918;BME280;40818;50.562;7.454;2022-09-09T09:33:15;97208.88;;;19.05;67.53
54918;BME280;40818;50.562;7.454;2022-09-09T09:38:23;97202.31;;;19.01;67.32
54918;BME280;40818;50.562;7.454;2022-09-09T09:43:32;97203.94;;;18.94;67.51
54918;BME280;40818;50.562;7.454;2022-09-09T09:48:42;97212.50;;;18.96;67.30
54918;BME280;40818;50.562;7.454;2022-09-09T09:53:46;97205.09;;;18.83;68.98
54918;BME280;40818;50.562;7.454;2022-09-09T09:58:53;97205.75;;;18.69;69.86
54918;BME280;40818;50.562;7.454;2022-09-09T10:04:17;97199.16;;;18.81;72.46
54918;BME280;40818;50.562;7.454;2022-09-09T10:09:27;97202.31;;;18.85;70.90
54918;BME280;40818;50.562;7.454;2022-09-09T10:14:37;97207.38;;;18.86;70.14
54918;BME280;40818;50.562;7.454;2022-09-09T10:19:57;97197.69;;;18.87;70.73
54918;BME280;40818;50.562;7.454;2022-09-09T10:25:20;97207.91;;;18.82;69.02
54918;BME280;40818;50.562;7.454;2022-09-09T10:30:29;97202.50;;;18.91;69.89
54918;BME280;40818;50.562;7.454;2022-09-09T10:35:47;97196.19;;;18.84;68.45
54918;BME280;40818;50.562;7.454;2022-09-09T10:41:13;97198.03;;;18.67;68.52
54918;BME280;40818;50.562;7.454;2022-09-09T10:46:23;97193.59;;;18.92;69.68
54918;BME280;40818;50.562;7.454;2022-09-09T10:51:40;97185.66;;;19.17;68.06
54918;BME280;40818;50.562;7.454;2022-09-09T10:56:52;97184.13;;;19.39;70.43
54918;BME280;40818;50.562;7.454;2022-09-09T11:02:01;97181.56;;;19.71;71.24
54918;BME280;40818;50.562;7.454;2022-09-09T11:07:12;97180.53;;;20.11;67.18
54918;BME280;40818;50.562;7.454;2022-09-09T11:12:18;97170.91;;;19.95;66.57
54918;BME280;40818;50.562;7.454;2022-09-09T11:17:24;97177.56;;;20.38;67.96
54918;BME280;40818;50.562;7.454;2022-09-09T11:22:35;97176.97;;;20.51;61.82
54918;BME280;40818;50.562;7.454;2022-09-09T11:27:45;97171.69;;;20.51;59.57
54918;BME280;40818;50.562;7.454;2022-09-09T11:38:26;97177.13;;;20.26;62.43
54918;BME280;40818;50.562;7.454;2022-09-09T11:43:32;97189.56;;;19.77;61.68
54918;BME280;40818;50.562;7.454;2022-09-09T11:48:38;97200.06;;;19.46;68.63
54918;BME280;40818;50.562;7.454;2022-09-09T11:53:54;97197.38;;;18.98;72.71
54918;BME280;40818;50.562;7.454;2022-09-09T11:59:03;97181.25;;;18.85;74.58
54918;BME280;40818;50.562;7.454;2022-09-09T12:04:26;97182.91;;;19.02;74.35
54918;BME280;40818;50.562;7.454;2022-09-09T12:09:44;97178.31;;;19.04;76.48
54918;BME280;40818;50.562;7.454;2022-09-09T12:14:57;97173.69;;;18.98;78.48
54918;BME280;40818;50.562;7.454;2022-09-09T12:20:08;97174.69;;;19.05;70.58
54918;BME280;40818;50.562;7.454;2022-09-09T12:25:28;97165.69;;;19.48;73.40
54918;BME280;40818;50.562;7.454;2022-09-09T12:30:39;97161.72;;;19.52;73.30
54918;BME280;40818;50.562;7.454;2022-09-09T12:35:49;97147.97;;;19.73;69.21
54918;BME280;40818;50.562;7.454;2022-09-09T12:40:58;97159.25;;;19.90;64.72
54918;BME280;40818;50.562;7.454;2022-09-09T12:46:03;97148.84;;;19.97;64.28
54918;BME280;40818;50.562;7.454;2022-09-09T12:51:19;97140.53;;;19.85;64.46
54918;BME280;40818;50.562;7.454;2022-09-09T12:56:29;97140.53;;;19.85;58.83
54918;BME280;40818;50.562;7.454;2022-09-09T13:01:36;97140.69;;;19.83;57.27
54918;BME280;40818;50.562;7.454;2022-09-09T13:06:39;97138.72;;;19.85;59.32
54918;BME280;40818;50.562;7.454;2022-09-09T13:11:49;97135.03;;;19.94;60.02
54918;BME280;40818;50.562;7.454;2022-09-09T13:16:56;97124.03;;;19.91;61.90
54918;BME280;40818;50.562;7.454;2022-09-09T13:22:00;97114.81;;;19.87;60.90
54918;BME280;40818;50.562;7.454;2022-09-09T13:27:24;97121.63;;;19.73;59.12
54918;BME280;40818;50.562;7.454;2022-09-09T13:32:29;97108.03;;;19.61;59.00
54918;BME280;40818;50.562;7.454;2022-09-09T13:37:36;97109.81;;;19.37;61.45
54918;BME280;40818;50.562;7.454;2022-09-09T13:42:44;97097.31;;;19.31;60.77
54918;BME280;40818;50.562;7.454;2022-09-09T13:47:48;97100.94;;;19.30;61.71
54918;BME280;40818;50.562;7.454;2022-09-09T13:52:54;97095.69;;;19.22;64.55
54918;BME280;40818;50.562;7.454;2022-09-09T13:58:02;97106.63;;;19.02;63.87
54918;BME280;40818;50.562;7.454;2022-09-09T14:03:06;97139.03;;;18.70;72.19
54918;BME280;40818;50.562;7.454;2022-09-09T14:08:20;97117.91;;;18.30;78.29
54918;BME280;40818;50.562;7.454;2022-09-09T14:13:28;97109.50;;;18.18;79.80
54918;BME280;40818;50.562;7.454;2022-09-09T14:18:31;97114.75;;;18.10;82.14
54918;BME280;40818;50.562;7.454;2022-09-09T14:23:35;97133.63;;;17.97;84.84
54918;BME280;40818;50.562;7.454;2022-09-09T14:28:41;97146.31;;;17.67;88.32
54918;BME280;40818;50.562;7.454;2022-09-09T14:33:45;97154.59;;;17.46;89.22
54918;BME280;40818;50.562;7.454;2022-09-09T14:38:48;97164.31;;;17.19;92.44
54918;BME280;40818;50.562;7.454;2022-09-09T14:43:55;97157.31;;;17.02;91.65
54918;BME280;40818;50.562;7.454;2022-09-09T14:48:59;97143.22;;;16.77;97.83
54918;BME280;40818;50.562;7.454;2022-09-09T14:54:02;97143.44;;;16.83;95.01
54918;BME280;40818;50.562;7.454;2022-09-09T14:59:08;97154.53;;;16.95;93.77
54918;BME280;40818;50.562;7.454;2022-09-09T15:04:13;97156.34;;;17.03;94.20
54918;BME280;40818;50.562;7.454;2022-09-09T15:09:17;97174.06;;;17.01;93.17
54918;BME280;40818;50.562;7.454;2022-09-09T15:14:23;97180.28;;;16.82;95.43
54918;BME280;40818;50.562;7.454;2022-09-09T15:19:26;97187.63;;;16.78;95.14
54918;BME280;40818;50.562;7.454;2022-09-09T15:24:30;97188.66;;;16.59;94.95
54918;BME280;40818;50.562;7.454;2022-09-09T15:29:36;97187.75;;;16.32;100.00
54918;BME280;40818;50.562;7.454;2022-09-09T15:34:40;97177.22;;;15.50;100.00
54918;BME280;40818;50.562;7.454;2022-09-09T15:39:43;97181.94;;;14.99;100.00
54918;BME280;40818;50.562;7.454;2022-09-09T15:44:49;97173.03;;;14.82;100.00
54918;BME280;40818;50.562;7.454;2022-09-09T15:49:53;97173.31;;;14.70;100.00
54918;BME280;40818;50.562;7.454;2022-09-09T15:54:56;97173.88;;;14.44;100.00
54918;BME280;40818;50.562;7.454;2022-09-09T16:00:07;97185.84;;;14.76;100.00
54918;BME280;40818;50.562;7.454;2022-09-09T16:05:15;97177.66;;;14.98;100.00
54918;BME280;40818;50.562;7.454;2022-09-09T16:10:21;97184.38;;;15.11;100.00
54918;BME280;40818;50.562;7.454;2022-09-09T16:15:27;97178.53;;;14.89;100.00
54918;BME280;40818;50.562;7.454;2022-09-09T16:20:30;97181.25;;;14.97;100.00
54918;BME280;40818;50.562;7.454;2022-09-09T16:25:34;97189.72;;;15.19;100.00
54918;BME280;40818;50.562;7.454;2022-09-09T16:30:41;97189.66;;;14.91;100.00
54918;BME280;40818;50.562;7.454;2022-09-09T16:35:44;97188.28;;;14.87;100.00
54918;BME280;40818;50.562;7.454;2022-09-09T16:40:47;97186.38;;;14.79;100.00
54918;BME280;40818;50.562;7.454;2022-09-09T16:45:53;97197.25;;;14.65;100.00
54918;BME280;40818;50.562;7.454;2022-09-09T16:51:01;97197.09;;;14.57;100.00
54918;BME280;40818;50.562;7.454;2022-09-09T16:56:06;97191.88;;;14.66;100.00
54918;BME280;40818;50.562;7.454;2022-09-09T17:01:12;97202.19;;;14.78;100.00
54918;BME280;40818;50.562;7.454;2022-09-09T17:06:15;97219.50;;;14.89;100.00
54918;BME280;40818;50.562;7.454;2022-09-09T17:11:20;97212.78;;;14.76;100.00
54918;BME280;40818;50.562;7.454;2022-09-09T17:16:28;97209.47;;;14.84;100.00
54918;BME280;40818;50.562;7.454;2022-09-09T17:21:32;97201.09;;;14.51;100.00
54918;BME280;40818;50.562;7.454;2022-09-09T17:26:36;97202.03;;;14.50;100.00
54918;BME280;40818;50.562;7.454;2022-09-09T17:31:43;97210.31;;;14.75;100.00
54918;BME280;40818;50.562;7.454;2022-09-09T17:36:46;97215.94;;;14.80;100.00
54918;BME280;40818;50.562;7.454;2022-09-09T17:41:51;97226.13;;;14.83;100.00
54918;BME280;40818;50.562;7.454;2022-09-09T17:46:57;97222.00;;;14.71;100.00
54918;BME280;40818;50.562;7.454;2022-09-09T17:52:01;97209.38;;;14.66;100.00
54918;BME280;40818;50.562;7.454;2022-09-09T17:57:05;97241.91;;;14.52;100.00
54918;BME280;40818;50.562;7.454;2022-09-09T18:02:12;97241.34;;;14.58;100.00
54918;BME280;40818;50.562;7.454;2022-09-09T18:07:15;97242.72;;;14.43;100.00
54918;BME280;40818;50.562;7.454;2022-09-09T18:12:19;97236.94;;;14.10;100.00
54918;BME280;40818;50.562;7.454;2022-09-09T18:17:25;97247.94;;;14.23;100.00
54918;BME280;40818;50.562;7.454;2022-09-09T18:22:30;97259.03;;;14.06;100.00
54918;BME280;40818;50.562;7.454;2022-09-09T18:27:33;97252.41;;;13.92;100.00
54918;BME280;40818;50.562;7.454;2022-09-09T18:32:39;97264.69;;;13.70;100.00
54918;BME280;40818;50.562;7.454;2022-09-09T18:37:45;97268.97;;;13.40;100.00
54918;BME280;40818;50.562;7.454;2022-09-09T18:42:49;97275.00;;;13.41;100.00
54918;BME280;40818;50.562;7.454;2022-09-09T18:47:55;97284.78;;;13.58;100.00
54918;BME280;40818;50.562;7.454;2022-09-09T18:52:58;97278.03;;;13.46;100.00
54918;BME280;40818;50.562;7.454;2022-09-09T18:58:02;97276.75;;;13.61;100.00
54918;BME280;40818;50.562;7.454;2022-09-09T19:03:08;97269.72;;;13.62;100.00
54918;BME280;40818;50.562;7.454;2022-09-09T19:08:11;97265.59;;;13.59;100.00
54918;BME280;40818;50.562;7.454;2022-09-09T19:13:15;97256.34;;;13.45;100.00
54918;BME280;40818;50.562;7.454;2022-09-09T19:18:21;97259.66;;;13.26;100.00
54918;BME280;40818;50.562;7.454;2022-09-09T19:23:24;97275.72;;;13.31;100.00
54918;BME280;40818;50.562;7.454;2022-09-09T19:28:31;97280.66;;;13.35;100.00
54918;BME280;40818;50.562;7.454;2022-09-09T19:33:37;97272.78;;;13.36;100.00
54918;BME280;40818;50.562;7.454;2022-09-09T19:38:43;97283.63;;;13.20;100.00
54918;BME280;40818;50.562;7.454;2022-09-09T19:43:46;97286.66;;;13.25;100.00
54918;BME280;40818;50.562;7.454;2022-09-09T19:48:52;97284.56;;;13.19;100.00
54918;BME280;40818;50.562;7.454;2022-09-09T19:53:57;97297.06;;;13.37;100.00
54918;BME280;40818;50.562;7.454;2022-09-09T19:59:02;97302.91;;;13.50;100.00
54918;BME280;40818;50.562;7.454;2022-09-09T20:04:09;97302.91;;;13.50;100.00
54918;BME280;40818;50.562;7.454;2022-09-09T20:09:15;97306.72;;;13.35;100.00
54918;BME280;40818;50.562;7.454;2022-09-09T20:14:19;97315.66;;;13.32;100.00
54918;BME280;40818;50.562;7.454;2022-09-09T20:19:25;97318.22;;;13.22;100.00
54918;BME280;40818;50.562;7.454;2022-09-09T20:24:28;97327.25;;;13.39;100.00
54918;BME280;40818;50.562;7.454;2022-09-09T20:29:32;97330.19;;;13.46;100.00
54918;BME280;40818;50.562;7.454;2022-09-09T20:34:38;97326.69;;;13.36;100.00
54918;BME280;40818;50.562;7.454;2022-09-09T20:39:42;97327.53;;;13.36;100.00
54918;BME280;40818;50.562;7.454;2022-09-09T20:44:46;97323.03;;;13.27;100.00
54918;BME280;40818;50.562;7.454;2022-09-09T20:49:52;97317.75;;;13.17;100.00
54918;BME280;40818;50.562;7.454;2022-09-09T20:54:55;97317.38;;;13.22;100.00
54918;BME280;40818;50.562;7.454;2022-09-09T20:59:58;97312.81;;;13.14;100.00
54918;BME280;40818;50.562;7.454;2022-09-09T21:05:05;97316.22;;;13.14;100.00
54918;BME280;40818;50.562;7.454;2022-09-09T21:10:10;97315.13;;;12.96;100.00
54918;BME280;40818;50.562;7.454;2022-09-09T21:15:14;97319.72;;;13.04;100.00
54918;BME280;40818;50.562;7.454;2022-09-09T21:20:20;97317.34;;;13.01;100.00
54918;BME280;40818;50.562;7.454;2022-09-09T21:25:24;97313.59;;;12.93;100.00
54918;BME280;40818;50.562;7.454;2022-09-09T21:30:27;97312.66;;;12.94;100.00
54918;BME280;40818;50.562;7.454;2022-09-09T21:35:36;97303.75;;;12.97;100.00
54918;BME280;40818;50.562;7.454;2022-09-09T21:40:40;97299.91;;;12.80;100.00
54918;BME280;40818;50.562;7.454;2022-09-09T21:45:44;97315.38;;;12.93;100.00
54918;BME280;40818;50.562;7.454;2022-09-09T21:50:52;97317.09;;;13.04;100.00
54918;BME280;40818;50.562;7.454;2022-09-09T21:56:00;97312.41;;;12.97;100.00
54918;BME280;40818;50.562;7.454;2022-09-09T22:01:08;97309.41;;;13.02;100.00
54918;BME280;40818;50.562;7.454;2022-09-09T22:06:16;97306.94;;;13.01;100.00
54918;BME280;40818;50.562;7.454;2022-09-09T22:11:21;97312.09;;;13.12;100.00
54918;BME280;40818;50.562;7.454;2022-09-09T22:16:24;97315.63;;;13.11;100.00
54918;BME280;40818;50.562;7.454;2022-09-09T22:21:31;97324.44;;;13.10;100.00
